createdAt,value
2023-02-06T00:00:26.031Z,2.08
2023-02-06T00:02:53.407Z,2.31
2023-02-06T00:05:22.156Z,2.38
2023-02-06T00:07:49.575Z,2.24
2023-02-06T00:10:17.043Z,2.22
2023-02-06T00:12:44.480Z,2.18
2023-02-06T00:15:12.038Z,2.33
2023-02-06T00:17:39.506Z,2.03
2023-02-06T00:20:09.005Z,2.19
2023-02-06T00:22:37.794Z,2.23
2023-02-06T00:25:06.280Z,2.15
2023-02-06T00:27:34.118Z,2.13
2023-02-06T00:30:01.723Z,2.07
2023-02-06T00:32:29.203Z,1.85
2023-02-06T00:34:56.675Z,2.13
2023-02-06T00:37:24.199Z,2.31
2023-02-06T00:39:53.027Z,2.26
2023-02-06T00:42:20.653Z,2.08
2023-02-06T00:44:48.044Z,2.20
2023-02-06T00:47:15.519Z,2.04
2023-02-06T00:49:42.976Z,2.31
2023-02-06T00:52:10.414Z,2.19
2023-02-06T00:54:37.864Z,2.23
2023-02-06T00:57:06.658Z,2.22
2023-02-06T00:59:34.136Z,2.23
2023-02-06T01:02:01.663Z,2.31
2023-02-06T01:04:29.120Z,2.14
2023-02-06T01:06:56.506Z,2.09
2023-02-06T01:09:23.902Z,2.11
2023-02-06T01:11:51.544Z,1.95
2023-02-06T01:14:20.316Z,2.12
2023-02-06T01:16:47.752Z,2.18
2023-02-06T01:19:15.169Z,2.22
2023-02-06T01:21:42.640Z,2.03
2023-02-06T01:24:10.037Z,1.88
2023-02-06T01:26:37.484Z,2.07
2023-02-06T01:29:05.109Z,2.29
2023-02-06T01:31:34.653Z,1.97
2023-02-06T01:34:02.062Z,1.95
2023-02-06T01:36:30.151Z,2.01
2023-02-06T01:38:57.601Z,1.72
2023-02-06T01:41:25.097Z,1.95
2023-02-06T01:44:11.627Z,1.88
2023-02-06T01:46:41.840Z,1.98
2023-02-06T01:49:12.652Z,1.68
2023-02-06T01:51:41.240Z,1.90
2023-02-06T01:54:10.541Z,1.88
2023-02-06T01:56:43.860Z,1.71
2023-02-06T01:59:12.704Z,1.65
2023-02-06T02:01:41.978Z,1.45
2023-02-06T02:04:15.833Z,1.73
2023-02-06T02:06:43.328Z,1.84
2023-02-06T02:09:10.744Z,1.89
2023-02-06T02:11:41.793Z,1.83
2023-02-06T02:14:13.679Z,1.72
2023-02-06T02:16:52.306Z,1.93
2023-02-06T02:19:50.910Z,1.95
2023-02-06T02:22:39.685Z,1.93
2023-02-06T02:25:25.557Z,2.15
2023-02-06T02:28:12.725Z,2.11
2023-02-06T02:31:07.974Z,1.95
2023-02-06T02:34:01.632Z,1.86
2023-02-06T02:36:35.897Z,2.11
2023-02-06T02:39:12.941Z,1.95
2023-02-06T02:41:45.884Z,2.03
2023-02-06T02:44:21.090Z,2.19
2023-02-06T02:46:52.435Z,1.47
2023-02-06T02:49:25.283Z,1.93
2023-02-06T02:51:54.101Z,2.42
2023-02-06T02:54:21.571Z,2.76
2023-02-06T02:56:49.301Z,2.68
2023-02-06T02:59:23.701Z,2.73
2023-02-06T03:01:57.135Z,2.46
2023-02-06T03:04:28.640Z,1.91
2023-02-06T03:07:09.437Z,2.52
2023-02-06T03:09:49.023Z,2.32
2023-02-06T03:12:22.998Z,2.13
2023-02-06T03:14:55.860Z,1.81
2023-02-06T03:17:33.962Z,2.36
2023-02-06T03:20:03.577Z,2.54
2023-02-06T03:22:35.735Z,2.35
2023-02-06T03:25:03.967Z,2.53
2023-02-06T03:27:33.262Z,1.79
2023-02-06T03:30:03.962Z,2.64
2023-02-06T03:32:35.296Z,2.86
2023-02-06T03:35:08.060Z,1.74
2023-02-06T03:37:38.238Z,2.49
2023-02-06T03:40:08.580Z,2.18
2023-02-06T03:42:40.511Z,2.75
2023-02-06T03:45:14.122Z,2.73
2023-02-06T03:47:44.353Z,2.78
2023-02-06T03:50:13.336Z,2.92
2023-02-06T03:52:46.289Z,3.12
2023-02-06T03:55:15.901Z,2.93
2023-02-06T03:57:48.573Z,3.00
2023-02-06T04:00:16.793Z,3.00
2023-02-06T04:02:47.469Z,2.94
2023-02-06T04:05:15.051Z,3.15
2023-02-06T04:07:44.265Z,3.04
2023-02-06T04:10:12.101Z,3.08
2023-02-06T04:12:39.833Z,2.98
2023-02-06T04:15:07.996Z,3.01
2023-02-06T04:17:57.540Z,3.19
2023-02-06T04:20:22.899Z,3.10
2023-02-06T04:22:51.713Z,3.01
2023-02-06T04:25:19.361Z,2.85
2023-02-06T04:27:46.898Z,3.14
2023-02-06T04:30:15.672Z,3.09
2023-02-06T04:32:43.162Z,3.24
2023-02-06T04:35:11.199Z,3.11
2023-02-06T04:37:38.673Z,2.88
2023-02-06T04:40:08.433Z,2.81
2023-02-06T04:42:35.862Z,3.00
2023-02-06T04:45:03.275Z,2.74
2023-02-06T04:47:30.735Z,2.97
2023-02-06T04:49:58.122Z,2.81
2023-02-06T04:52:25.705Z,2.64
2023-02-06T04:54:53.141Z,2.78
2023-02-06T04:57:21.885Z,2.46
2023-02-06T04:59:49.313Z,2.45
2023-02-06T05:02:16.770Z,2.53
2023-02-06T05:04:44.244Z,1.97
2023-02-06T05:07:11.740Z,2.41
2023-02-06T05:09:39.184Z,2.58
2023-02-06T05:12:06.928Z,2.53
2023-02-06T05:14:35.720Z,2.15
2023-02-06T05:17:03.142Z,2.31
2023-02-06T05:19:30.530Z,2.62
2023-02-06T05:21:57.982Z,2.40
2023-02-06T05:24:25.483Z,2.73
2023-02-06T05:26:52.961Z,2.78
2023-02-06T05:29:20.378Z,2.72
2023-02-06T05:31:49.125Z,2.88
2023-02-06T05:34:16.525Z,2.72
2023-02-06T05:36:44.015Z,2.76
2023-02-06T05:39:11.437Z,2.84
2023-02-06T05:41:38.931Z,2.77
2023-02-06T05:44:06.557Z,2.84
2023-02-06T05:46:34.070Z,2.77
2023-02-06T05:49:02.874Z,2.88
2023-02-06T05:51:30.242Z,2.80
2023-02-06T05:53:57.679Z,2.67
2023-02-06T05:56:25.103Z,2.84
2023-02-06T05:58:52.571Z,2.65
2023-02-06T06:01:20.269Z,2.63
2023-02-06T06:03:47.808Z,2.38
2023-02-06T06:06:16.677Z,2.45
2023-02-06T06:08:44.153Z,2.49
2023-02-06T06:11:11.579Z,2.68
2023-02-06T06:13:39.016Z,2.65
2023-02-06T06:16:06.709Z,2.85
2023-02-06T06:18:34.228Z,2.80
2023-02-06T06:21:01.626Z,2.65
2023-02-06T06:23:30.429Z,2.20
2023-02-06T06:25:57.882Z,2.30
2023-02-06T06:28:25.335Z,2.32
2023-02-06T06:30:52.744Z,2.20
2023-02-06T06:33:20.142Z,1.80
2023-02-06T06:35:47.574Z,1.69
2023-02-06T06:38:15.362Z,2.48
2023-02-06T06:40:44.127Z,2.19
2023-02-06T06:43:11.574Z,2.42
2023-02-06T06:45:39.408Z,2.46
2023-02-06T06:48:07.116Z,2.55
2023-02-06T06:50:34.583Z,2.59
2023-02-06T06:53:02.020Z,2.79
2023-02-06T06:55:29.557Z,2.85
2023-02-06T06:57:58.401Z,2.67
2023-02-06T07:00:25.969Z,2.74
2023-02-06T07:02:53.495Z,2.59
2023-02-06T07:05:21.083Z,2.80
2023-02-06T07:07:48.542Z,2.91
2023-02-06T07:10:16.337Z,2.72
2023-02-06T07:12:43.765Z,2.76
2023-02-06T07:15:12.547Z,2.56
2023-02-06T07:17:40.072Z,2.35
2023-02-06T07:20:08.088Z,2.54
2023-02-06T07:22:35.493Z,2.76
2023-02-06T07:25:02.955Z,2.84
2023-02-06T07:27:30.453Z,2.65
2023-02-06T07:29:57.866Z,2.79
2023-02-06T07:32:26.723Z,2.75
2023-02-06T07:34:54.113Z,2.81
2023-02-06T07:37:21.532Z,2.87
2023-02-06T07:39:48.957Z,2.69
2023-02-06T07:42:16.381Z,2.94
2023-02-06T07:44:43.781Z,2.69
2023-02-06T07:47:11.492Z,2.75
2023-02-06T07:49:40.297Z,2.76
2023-02-06T07:52:07.791Z,2.66
2023-02-06T07:54:35.220Z,2.73
2023-02-06T07:57:02.695Z,3.10
2023-02-06T07:59:30.123Z,3.34
2023-02-06T08:01:57.537Z,2.87
2023-02-06T08:04:24.977Z,3.08
2023-02-06T08:06:53.714Z,2.94
2023-02-06T08:09:21.137Z,2.60
2023-02-06T08:11:48.612Z,3.06
2023-02-06T08:14:16.063Z,2.79
2023-02-06T08:16:43.710Z,2.86
2023-02-06T08:19:12.311Z,2.66
2023-02-06T08:21:40.008Z,3.13
2023-02-06T08:24:12.149Z,2.98
2023-02-06T08:26:40.095Z,3.28
2023-02-06T08:29:08.725Z,3.57
2023-02-06T08:31:38.660Z,3.12
2023-02-06T08:34:06.969Z,3.02
2023-02-06T08:36:35.126Z,2.71
2023-02-06T08:39:04.536Z,3.29
2023-02-06T08:41:37.016Z,3.09
2023-02-06T08:44:07.137Z,2.71
2023-02-06T08:46:35.187Z,2.90
2023-02-06T08:49:04.935Z,2.78
2023-02-06T08:51:32.991Z,2.73
2023-02-06T08:54:02.132Z,3.08
2023-02-06T08:56:34.036Z,2.84
2023-02-06T08:59:02.033Z,2.81
2023-02-06T09:01:31.570Z,2.78
2023-02-06T09:04:03.806Z,2.87
2023-02-06T09:06:32.027Z,3.01
2023-02-06T09:08:59.430Z,2.95
2023-02-06T09:11:27.627Z,2.76
2023-02-06T09:13:57.976Z,1.76
2023-02-06T09:16:26.414Z,2.14
2023-02-06T09:18:54.676Z,1.93
2023-02-06T09:21:23.937Z,2.11
2023-02-06T09:23:53.419Z,2.42
2023-02-06T09:26:23.252Z,2.50
2023-02-06T09:28:53.007Z,2.98
2023-02-06T09:31:22.061Z,1.97
2023-02-06T09:33:49.628Z,1.74
2023-02-06T09:36:19.693Z,2.23
2023-02-06T09:38:49.053Z,1.95
2023-02-06T09:41:19.078Z,2.16
2023-02-06T09:43:51.577Z,2.19
2023-02-06T09:46:26.861Z,2.33
2023-02-06T09:48:56.258Z,1.88
2023-02-06T09:51:31.646Z,1.93
2023-02-06T09:54:06.920Z,1.93
2023-02-06T09:56:40.218Z,1.93
2023-02-06T09:59:17.080Z,1.46
2023-02-06T10:01:53.372Z,1.18
2023-02-06T10:04:35.184Z,0.92
2023-02-06T10:07:15.621Z,1.48
2023-02-06T10:09:48.950Z,0.74
2023-02-06T10:12:24.746Z,0.77
2023-02-06T10:14:56.666Z,0.55
2023-02-06T10:17:30.044Z,0.87
2023-02-06T10:20:03.192Z,0.97
2023-02-06T10:22:38.732Z,0.76
2023-02-06T10:25:19.188Z,1.13
2023-02-06T10:27:50.295Z,1.35
2023-02-06T10:30:20.911Z,1.29
2023-02-06T10:33:00.048Z,1.64
2023-02-06T10:35:40.325Z,0.87
2023-02-06T10:38:28.242Z,1.25
2023-02-06T10:41:04.421Z,0.92
2023-02-06T10:43:40.427Z,1.69
2023-02-06T10:46:28.288Z,0.70
2023-02-06T10:49:03.426Z,0.68
2023-02-06T10:51:33.667Z,0.61
2023-02-06T10:54:04.045Z,1.02
2023-02-06T10:56:36.686Z,1.10
2023-02-06T10:59:07.977Z,1.32
2023-02-06T11:01:37.908Z,1.51
2023-02-06T11:04:14.958Z,1.51
2023-02-06T11:06:45.918Z,1.83
2023-02-06T11:09:13.691Z,1.70
2023-02-06T11:11:43.093Z,1.46
2023-02-06T11:14:16.796Z,1.68
2023-02-06T11:16:45.394Z,1.10
2023-02-06T11:19:18.522Z,0.77
2023-02-06T11:21:57.778Z,1.13
2023-02-06T11:24:25.998Z,1.39
2023-02-06T11:26:57.267Z,0.97
2023-02-06T11:29:28.292Z,0.92
2023-02-06T11:31:59.235Z,1.06
2023-02-06T11:34:32.253Z,1.41
2023-02-06T11:37:02.491Z,1.45
2023-02-06T11:39:32.395Z,2.08
2023-02-06T11:42:05.334Z,1.24
2023-02-06T11:44:40.928Z,1.98
2023-02-06T11:47:21.748Z,1.59
2023-02-06T11:49:50.483Z,2.15
2023-02-06T11:52:30.143Z,0.71
2023-02-06T11:55:02.739Z,0.52
2023-02-06T11:57:31.892Z,0.58
2023-02-06T12:00:01.557Z,0.62
2023-02-06T12:02:32.551Z,0.38
2023-02-06T12:05:12.775Z,0.46
2023-02-06T12:07:45.214Z,0.17
2023-02-06T12:10:15.949Z,0.17
2023-02-06T12:12:47.100Z,0.08
2023-02-06T12:15:43.633Z,-0.03
2023-02-06T12:18:10.663Z,0.18
2023-02-06T12:20:48.478Z,1.15
2023-02-06T12:23:21.697Z,0.64
2023-02-06T12:25:51.131Z,0.43
2023-02-06T12:28:22.095Z,0.74
2023-02-06T12:30:55.763Z,0.52
2023-02-06T12:33:33.288Z,1.01
2023-02-06T12:36:07.957Z,1.10
2023-02-06T12:38:43.733Z,0.48
2023-02-06T12:41:24.823Z,0.32
2023-02-06T12:43:57.050Z,0.83
2023-02-06T12:46:28.161Z,0.91
2023-02-06T12:49:02.164Z,0.60
2023-02-06T12:51:37.106Z,0.57
2023-02-06T12:54:12.225Z,0.17
2023-02-06T12:56:43.605Z,0.89
2023-02-06T12:59:57.656Z,2.01
2023-02-06T13:02:48.963Z,2.95
2023-02-06T13:05:22.093Z,2.47
2023-02-06T13:07:52.573Z,1.94
2023-02-06T13:10:21.738Z,1.98
2023-02-06T13:12:55.387Z,1.79
2023-02-06T13:15:25.934Z,1.41
2023-02-06T13:17:55.458Z,1.57
2023-02-06T13:20:25.298Z,1.54
2023-02-06T13:22:56.118Z,1.77
2023-02-06T13:25:47.508Z,1.68
2023-02-06T13:28:41.299Z,2.30
2023-02-06T13:31:22.974Z,1.64
2023-02-06T13:33:53.653Z,1.27
2023-02-06T13:36:28.525Z,1.39
2023-02-06T13:38:58.159Z,1.22
2023-02-06T13:41:31.698Z,1.31
2023-02-06T13:44:03.393Z,1.72
2023-02-06T13:46:57.627Z,2.01
2023-02-06T13:49:59.213Z,1.95
2023-02-06T13:52:36.324Z,2.25
2023-02-06T13:55:18.506Z,1.95
2023-02-06T13:58:04.858Z,2.72
2023-02-06T14:00:33.984Z,3.00
2023-02-06T14:03:08.049Z,2.72
2023-02-06T14:05:55.684Z,2.30
2023-02-06T14:08:30.842Z,1.05
2023-02-06T14:11:20.124Z,0.82
2023-02-06T14:14:17.290Z,0.90
2023-02-06T14:16:50.385Z,1.99
2023-02-06T14:19:26.481Z,2.16
2023-02-06T14:22:04.103Z,2.22
2023-02-06T14:24:47.961Z,2.12
2023-02-06T14:27:31.465Z,1.56
2023-02-06T14:30:15.698Z,1.10
2023-02-06T14:32:49.908Z,2.11
2023-02-06T14:35:32.494Z,1.47
2023-02-06T14:38:23.972Z,1.56
2023-02-06T14:40:53.513Z,2.09
2023-02-06T14:43:26.611Z,2.00
2023-02-06T14:46:06.939Z,1.45
2023-02-06T14:48:40.955Z,2.13
2023-02-06T14:51:19.075Z,1.92
2023-02-06T14:53:53.251Z,2.15
2023-02-06T14:56:29.222Z,1.68
2023-02-06T14:58:58.099Z,2.12
2023-02-06T15:01:28.643Z,1.88
2023-02-06T15:04:10.525Z,2.05
2023-02-06T15:06:39.890Z,2.08
2023-02-06T15:09:08.626Z,1.84
2023-02-06T15:11:36.399Z,1.73
2023-02-06T15:14:08.963Z,1.96
2023-02-06T15:16:46.865Z,1.33
2023-02-06T15:19:19.906Z,1.30
2023-02-06T15:21:47.951Z,1.76
2023-02-06T15:24:34.187Z,1.30
2023-02-06T15:27:08.807Z,1.50
2023-02-06T15:29:38.195Z,1.65
2023-02-06T15:32:08.565Z,1.01
2023-02-06T15:34:36.364Z,1.16
2023-02-06T15:37:22.712Z,1.37
2023-02-06T15:39:51.020Z,1.58
2023-02-06T15:42:20.627Z,1.95
2023-02-06T15:44:50.755Z,1.93
2023-02-06T15:47:20.237Z,1.87
2023-02-06T15:49:50.053Z,1.91
2023-02-06T15:52:34.208Z,1.47
2023-02-06T15:55:01.986Z,0.99
2023-02-06T15:57:33.158Z,1.44
2023-02-06T16:00:02.965Z,1.99
2023-02-06T16:02:34.060Z,1.69
2023-02-06T16:05:03.481Z,1.44
2023-02-06T16:07:33.540Z,0.99
2023-02-06T16:10:06.016Z,1.77
2023-02-06T16:12:35.286Z,1.45
2023-02-06T16:15:25.177Z,1.17
2023-02-06T16:17:52.802Z,1.49
2023-02-06T16:20:33.190Z,0.69
2023-02-06T16:23:21.688Z,1.26
2023-02-06T16:25:59.704Z,1.33
2023-02-06T16:28:28.283Z,0.67
2023-02-06T16:30:59.563Z,1.19
2023-02-06T16:33:35.013Z,1.25
2023-02-06T16:36:06.260Z,2.05
2023-02-06T16:38:34.312Z,1.61
2023-02-06T16:41:02.071Z,1.18
2023-02-06T16:43:31.612Z,1.46
2023-02-06T16:46:02.761Z,1.64
2023-02-06T16:48:30.226Z,1.24
2023-02-06T16:50:57.726Z,1.87
2023-02-06T16:53:26.638Z,1.73
2023-02-06T16:55:54.184Z,1.87
2023-02-06T16:58:24.228Z,1.59
2023-02-06T17:00:52.433Z,1.31
2023-02-06T17:03:21.338Z,1.99
2023-02-06T17:05:52.155Z,1.89
2023-02-06T17:08:22.318Z,2.15
2023-02-06T17:10:49.889Z,1.60
2023-02-06T17:13:19.474Z,1.81
2023-02-06T17:15:48.062Z,2.00
2023-02-06T17:18:18.167Z,2.48
2023-02-06T17:20:48.695Z,2.26
2023-02-06T17:23:16.585Z,2.23
2023-02-06T17:25:46.265Z,1.92
2023-02-06T17:28:16.693Z,1.83
2023-02-06T17:30:45.652Z,0.75
2023-02-06T17:33:13.395Z,1.30
2023-02-06T17:35:40.823Z,1.37
2023-02-06T17:38:10.672Z,0.88
2023-02-06T17:40:40.254Z,1.25
2023-02-06T17:43:07.992Z,1.15
2023-02-06T17:45:38.079Z,1.25
2023-02-06T17:48:06.641Z,2.03
2023-02-06T17:50:36.815Z,1.70
2023-02-06T17:53:05.870Z,2.06
2023-02-06T17:55:36.516Z,1.98
2023-02-06T17:58:04.229Z,1.64
2023-02-06T18:00:32.037Z,1.95
2023-02-06T18:03:00.901Z,2.15
2023-02-06T18:05:28.801Z,2.38
2023-02-06T18:07:56.269Z,2.10
2023-02-06T18:10:25.978Z,1.98
2023-02-06T18:12:54.819Z,1.98
2023-02-06T18:15:22.323Z,1.88
2023-02-06T18:17:49.875Z,2.18
2023-02-06T18:20:17.775Z,1.88
2023-02-06T18:22:45.324Z,1.79
2023-02-06T18:25:14.931Z,2.21
2023-02-06T18:27:45.479Z,2.00
2023-02-06T18:30:17.128Z,2.20
2023-02-06T18:32:44.763Z,2.38
2023-02-06T18:35:12.379Z,1.86
2023-02-06T18:37:39.815Z,2.35
2023-02-06T18:40:07.836Z,2.35
2023-02-06T18:42:58.150Z,2.29
2023-02-06T18:45:31.159Z,2.40
2023-02-06T18:47:58.595Z,2.27
2023-02-06T18:50:26.005Z,2.19
2023-02-06T18:52:53.430Z,2.19
2023-02-06T18:55:21.279Z,2.25
2023-02-06T18:57:49.491Z,2.10
2023-02-06T19:00:19.082Z,2.31
2023-02-06T19:02:48.183Z,2.09
2023-02-06T19:05:16.140Z,2.30
2023-02-06T19:07:43.566Z,2.26
2023-02-06T19:10:13.005Z,2.21
2023-02-06T19:12:40.644Z,2.15
2023-02-06T19:15:09.134Z,2.12
2023-02-06T19:17:36.649Z,2.11
2023-02-06T19:20:08.469Z,2.29
2023-02-06T19:22:36.416Z,2.04
2023-02-06T19:25:05.917Z,2.10
2023-02-06T19:27:33.305Z,1.93
2023-02-06T19:30:00.754Z,2.11
2023-02-06T19:32:29.115Z,2.02
2023-02-06T19:34:57.814Z,1.78
2023-02-06T19:37:26.546Z,1.62
2023-02-06T19:39:54.012Z,1.90
2023-02-06T19:42:21.474Z,1.59
2023-02-06T19:44:52.588Z,1.46
2023-02-06T19:47:19.990Z,1.60
2023-02-06T19:49:50.500Z,1.71
2023-02-06T19:52:18.127Z,1.44
2023-02-06T19:54:47.739Z,1.46
2023-02-06T19:57:15.950Z,1.52
2023-02-06T19:59:43.420Z,1.54
2023-02-06T20:02:15.413Z,1.75
2023-02-06T20:04:45.113Z,1.69
2023-02-06T20:07:12.798Z,1.61
2023-02-06T20:09:41.910Z,1.66
2023-02-06T20:12:12.388Z,1.64
2023-02-06T20:14:40.000Z,1.64
2023-02-06T20:17:07.453Z,1.70
2023-02-06T20:19:34.886Z,1.67
2023-02-06T20:22:03.080Z,1.28
2023-02-06T20:24:32.685Z,1.34
2023-02-06T20:27:02.477Z,1.23
2023-02-06T20:29:34.152Z,0.99
2023-02-06T20:32:01.943Z,1.31
2023-02-06T20:34:29.930Z,1.48
2023-02-06T20:36:57.431Z,1.39
2023-02-06T20:39:26.227Z,1.52
2023-02-06T20:41:54.144Z,1.48
2023-02-06T20:44:22.391Z,1.57
2023-02-06T20:46:51.273Z,1.60
2023-02-06T20:49:20.506Z,1.49
2023-02-06T20:51:49.146Z,1.51
2023-02-06T20:54:17.031Z,1.50
2023-02-06T20:56:44.582Z,1.06
2023-02-06T20:59:14.089Z,1.27
2023-02-06T21:01:42.033Z,1.37
2023-02-06T21:04:13.378Z,1.21
2023-02-06T21:06:41.123Z,1.02
2023-02-06T21:09:09.877Z,1.18
2023-02-06T21:11:41.925Z,1.27
2023-02-06T21:14:10.185Z,1.44
2023-02-06T21:16:38.704Z,1.59
2023-02-06T21:19:08.243Z,1.65
2023-02-06T21:21:38.043Z,1.47
2023-02-06T21:24:06.297Z,1.09
2023-02-06T21:26:34.408Z,1.07
2023-02-06T21:29:03.736Z,1.18
2023-02-06T21:31:36.867Z,1.29
2023-02-06T21:34:09.018Z,1.51
2023-02-06T21:36:39.583Z,1.26
2023-02-06T21:39:10.839Z,1.31
2023-02-06T21:41:38.421Z,1.45
2023-02-06T21:44:06.267Z,1.29
2023-02-06T21:46:34.454Z,1.28
2023-02-06T21:49:01.977Z,1.35
2023-02-06T21:51:29.643Z,1.54
2023-02-06T21:53:58.794Z,1.52
2023-02-06T21:56:28.563Z,1.23
2023-02-06T21:58:56.446Z,1.25
2023-02-06T22:01:26.899Z,2.20
2023-02-06T22:03:55.239Z,1.52
2023-02-06T22:06:22.640Z,0.40
2023-02-06T22:08:52.805Z,0.62
2023-02-06T22:11:24.002Z,0.17
2023-02-06T22:13:53.967Z,0.32
2023-02-06T22:16:23.412Z,0.88
2023-02-06T22:18:53.628Z,0.79
2023-02-06T22:21:25.211Z,1.83
2023-02-06T22:23:53.319Z,2.84
2023-02-06T22:26:22.331Z,1.70
2023-02-06T22:28:50.435Z,1.80
2023-02-06T22:31:20.750Z,2.42
2023-02-06T22:33:50.777Z,1.94
2023-02-06T22:36:20.256Z,0.38
2023-02-06T22:38:49.042Z,1.26
2023-02-06T22:41:17.866Z,1.50
2023-02-06T22:43:47.271Z,1.57
2023-02-06T22:46:19.982Z,1.55
2023-02-06T22:48:48.076Z,1.57
2023-02-06T22:51:15.922Z,1.33
2023-02-06T22:53:44.561Z,1.29
2023-02-06T22:56:31.200Z,1.19
2023-02-06T22:59:03.177Z,1.29
2023-02-06T23:01:33.161Z,1.20
2023-02-06T23:04:04.953Z,1.22
2023-02-06T23:06:34.087Z,1.17
2023-02-06T23:09:04.100Z,1.06
2023-02-06T23:11:32.424Z,1.10
2023-02-06T23:14:03.746Z,1.14
2023-02-06T23:16:33.027Z,1.24
2023-02-06T23:19:04.384Z,1.09
2023-02-06T23:21:33.768Z,1.06
2023-02-06T23:24:01.622Z,1.14
2023-02-06T23:26:29.706Z,1.01
2023-02-06T23:28:58.154Z,1.02
2023-02-06T23:31:28.384Z,1.18
2023-02-06T23:33:56.042Z,1.03
2023-02-06T23:36:26.578Z,1.18
2023-02-06T23:38:54.719Z,0.98
2023-02-06T23:41:24.442Z,1.05
2023-02-06T23:43:52.993Z,1.09
2023-02-06T23:46:27.230Z,1.12
2023-02-06T23:48:55.377Z,1.04
2023-02-06T23:51:24.111Z,1.19
2023-02-06T23:53:52.391Z,1.26
2023-02-06T23:56:23.257Z,1.17
2023-02-06T23:58:51.166Z,1.15
